Terminal Aerodrome Forecast
Issued by NWS

Home | Current Version | Previous Version | Text Only | Print | Product List | Glossary On
Versions: 1 2 3 4 5 6 7 8 9 10 11 12 13 14 15 16 17 18 19 20 21 22 23 24 25 26 27 28 29 30 31 32 33 34
000
FTUS44 KHGX 011140
TAFSGR
TAF
KSGR 011140Z 0112/0212 03005KT 1SM -RA BR VCSH OVC002
      TEMPO 0112/0116 2SM SHRA BR
     FM011700 09008KT 4SM -DZ BR VCSH OVC007
     FM012100 07006KT 6SM -RA BR VCSH OVC009
     FM020300 06005KT 2SM -RA BR VCSH OVC004
     FM020600 01006KT 2SM -DZ BR VCSH OVC003=

USA.gov is the U.S. government's official web portal to all federal, state and local government web resources and services.